Time;durP1;ratioP1;P1;durP2;ratioP2;P2;SDS_P1;SDS_P2;PMS_P1;PMS_P2;Temp;Humidity;BMP_temperature;BMP_pressure;BME280_temperature;BME280_humidity;BME280_pressure;Samples;Min_cycle;Max_cycle;Signal;HPM_P1;HPM_P2
2022/09/05 00:00:09;;;;;;;8.35;3.83;;;;;;;;;;4950145;29;20102;-88
2022/09/05 00:02:45;;;;;;;6.68;3.55;;;;;;;;;;4948094;29;20115;-87
2022/09/05 00:05:30;;;;;;;8.68;3.63;;;;;;;;;;4952965;29;20047;-87
2022/09/05 00:08:02;;;;;;;6.18;3.78;;;;;;;;;;4940596;29;20098;-85
2022/09/05 00:10:28;;;;;;;7.72;3.80;;;;;;;;;;4955521;29;20052;-87
2022/09/05 00:12:57;;;;;;;7.63;3.80;;;;;;;;;;4938382;29;20055;-88
2022/09/05 00:15:28;;;;;;;6.50;3.78;;;;;;;;;;4955340;28;20486;-88
2022/09/05 00:18:07;;;;;;;7.40;3.88;;;;;;;;;;4957312;29;20502;-87
2022/09/05 00:20:41;;;;;;;7.03;4.00;;;;;;;;;;4958614;29;20043;-87
2022/09/05 00:23:10;;;;;;;8.45;4.22;;;;;;;;;;4958885;29;20035;-87
2022/09/05 00:25:55;;;;;;;6.03;3.60;;;;;;;;;;4957680;29;20047;-87
2022/09/05 00:28:35;;;;;;;6.18;4.10;;;;;;;;;;4958622;29;20051;-87
2022/09/05 00:31:01;;;;;;;9.18;4.13;;;;;;;;;;4941211;28;20094;-87
2022/09/05 00:33:36;;;;;;;6.65;3.63;;;;;;;;;;4956577;29;20047;-87
2022/09/05 00:36:21;;;;;;;8.00;4.20;;;;;;;;;;4955232;29;20047;-87
2022/09/05 00:38:59;;;;;;;7.15;4.22;;;;;;;;;;4942487;29;20472;-88
2022/09/05 00:41:26;;;;;;;10.27;4.47;;;;;;;;;;4947748;29;20098;-88
2022/09/05 00:43:52;;;;;;;6.55;4.20;;;;;;;;;;4950951;29;20053;-87
2022/09/05 00:46:23;;;;;;;7.45;4.15;;;;;;;;;;4956045;28;20039;-88
2022/09/05 00:48:52;;;;;;;10.68;4.78;;;;;;;;;;4956298;29;20122;-87
2022/09/05 00:51:21;;;;;;;7.55;4.30;;;;;;;;;;4958345;29;20056;-88
2022/09/05 00:54:06;;;;;;;7.43;4.97;;;;;;;;;;4955223;29;20052;-88
2022/09/05 00:56:44;;;;;;;7.50;4.47;;;;;;;;;;4951309;29;20103;-87
2022/09/05 00:59:29;;;;;;;12.30;4.38;;;;;;;;;;4939089;29;20498;-87
2022/09/05 01:01:58;;;;;;;9.07;4.68;;;;;;;;;;4937226;29;20051;-88
2022/09/05 01:04:31;;;;;;;7.00;4.43;;;;;;;;;;4945616;29;20043;-87
2022/09/05 01:07:15;;;;;;;7.95;4.63;;;;;;;;;;4955366;29;20043;-88
2022/09/05 01:09:58;;;;;;;8.38;4.57;;;;;;;;;;4939524;29;20548;-86
2022/09/05 01:12:47;;;;;;;8.55;4.97;;;;;;;;;;4957143;29;20081;-88
2022/09/05 01:15:27;;;;;;;9.05;4.80;;;;;;;;;;4953927;29;20450;-88
2022/09/05 01:17:56;;;;;;;9.05;4.68;;;;;;;;;;4955498;28;20095;-88
2022/09/05 01:20:41;;;;;;;8.40;4.55;;;;;;;;;;4963444;29;20075;-88
2022/09/05 01:23:26;;;;;;;11.48;4.63;;;;;;;;;;4978048;29;20051;-87
2022/09/05 01:26:12;;;;;;;7.22;4.70;;;;;;;;;;4965851;29;20047;-88
2022/09/05 01:28:50;;;;;;;7.28;4.90;;;;;;;;;;4913760;29;20060;-88
2022/09/05 01:31:25;;;;;;;7.40;5.10;;;;;;;;;;4956470;28;20055;-88
2022/09/05 01:34:01;;;;;;;6.40;4.70;;;;;;;;;;4943142;29;20044;-88
2022/09/05 01:36:36;;;;;;;9.98;5.20;;;;;;;;;;4956170;29;20043;-88
2022/09/05 01:39:11;;;;;;;7.72;5.30;;;;;;;;;;4953011;29;20117;-86
2022/09/05 01:41:38;;;;;;;7.68;4.72;;;;;;;;;;4921219;29;20402;-87
2022/09/05 01:44:16;;;;;;;8.68;5.03;;;;;;;;;;4951410;29;20047;-87
2022/09/05 01:47:01;;;;;;;8.63;4.72;;;;;;;;;;4952341;28;20410;-87
2022/09/05 01:49:36;;;;;;;9.90;4.80;;;;;;;;;;4954573;29;20048;-88
2022/09/05 01:52:21;;;;;;;8.50;5.20;;;;;;;;;;4955532;29;20046;-88
2022/09/05 01:54:59;;;;;;;7.95;4.93;;;;;;;;;;4954030;29;20054;-88
2022/09/05 01:57:31;;;;;;;9.20;4.93;;;;;;;;;;4937719;29;21799;-88
2022/09/05 02:00:16;;;;;;;7.68;4.82;;;;;;;;;;4954610;29;20058;-88
2022/09/05 02:03:11;;;;;;;9.73;5.25;;;;;;;;;;4944516;29;20067;-88
2022/09/05 02:05:51;;;;;;;11.40;5.22;;;;;;;;;;4937631;29;20521;-88
2022/09/05 02:08:39;;;;;;;7.43;5.43;;;;;;;;;;4953018;29;20054;-88
2022/09/05 02:11:10;;;;;;;8.95;5.65;;;;;;;;;;4954612;29;20134;-89
2022/09/05 02:13:36;;;;;;;7.63;5.13;;;;;;;;;;4955022;29;20039;-89
2022/09/05 02:16:18;;;;;;;8.43;5.15;;;;;;;;;;4946768;29;20443;-89
2022/09/05 02:19:02;;;;;;;9.43;5.40;;;;;;;;;;4946063;29;20514;-89
2022/09/05 02:21:37;;;;;;;7.32;5.20;;;;;;;;;;4954920;29;20122;-86
2022/09/05 02:24:22;;;;;;;8.05;5.30;;;;;;;;;;4938179;29;20130;-87
2022/09/05 02:27:10;;;;;;;8.77;5.70;;;;;;;;;;4954870;29;20046;-87
2022/09/05 02:30:08;;;;;;;7.85;5.38;;;;;;;;;;4954689;29;20043;-88
2022/09/05 02:32:40;;;;;;;7.75;5.82;;;;;;;;;;4907210;29;20138;-88
2022/09/05 02:35:09;;;;;;;8.80;6.05;;;;;;;;;;4918763;29;20043;-88
2022/09/05 02:37:41;;;;;;;7.85;5.40;;;;;;;;;;4953540;29;20130;-87
2022/09/05 02:40:10;;;;;;;8.02;5.65;;;;;;;;;;4955458;28;20102;-88
2022/09/05 02:42:40;;;;;;;10.95;5.60;;;;;;;;;;4937961;29;20039;-89
2022/09/05 02:45:06;;;;;;;8.35;5.50;;;;;;;;;;4943968;29;20072;-88
2022/09/05 02:47:41;;;;;;;11.20;6.20;;;;;;;;;;4951707;29;20556;-88
2022/09/05 02:50:17;;;;;;;7.15;5.32;;;;;;;;;;4937928;29;20053;-89
2022/09/05 02:52:44;;;;;;;8.93;5.40;;;;;;;;;;4928492;29;20059;-88
2022/09/05 02:55:24;;;;;;;8.50;5.70;;;;;;;;;;4937161;29;20039;-88
2022/09/05 02:57:56;;;;;;;8.63;5.55;;;;;;;;;;4929252;29;20047;-88
2022/09/05 03:00:24;;;;;;;8.77;5.28;;;;;;;;;;4955105;29;20105;-88
2022/09/05 03:03:08;;;;;;;7.07;5.47;;;;;;;;;;4953151;29;20098;-88
2022/09/05 03:05:34;;;;;;;8.98;5.88;;;;;;;;;;4952359;28;20537;-87
2022/09/05 03:08:18;;;;;;;10.60;5.45;;;;;;;;;;4953148;29;20134;-88
2022/09/05 03:11:01;;;;;;;9.57;6.25;;;;;;;;;;4956193;29;20051;-88
2022/09/05 03:13:30;;;;;;;8.77;5.70;;;;;;;;;;4931344;29;20406;-88
2022/09/05 03:16:14;;;;;;;11.38;6.05;;;;;;;;;;4952761;29;20090;-87
2022/09/05 03:18:59;;;;;;;7.20;5.13;;;;;;;;;;4952480;29;20051;-88
2022/09/05 03:21:44;;;;;;;9.18;5.75;;;;;;;;;;4955120;29;20486;-87
2022/09/05 03:24:37;;;;;;;7.72;5.78;;;;;;;;;;4935855;29;20044;-87
2022/09/05 03:27:15;;;;;;;10.55;6.18;;;;;;;;;;4940724;29;20039;-88
2022/09/05 03:30:00;;;;;;;10.07;6.03;;;;;;;;;;4950099;28;20043;-88
2022/09/05 03:32:29;;;;;;;9.35;6.00;;;;;;;;;;4937020;29;20509;-88
2022/09/05 03:34:55;;;;;;;9.23;5.60;;;;;;;;;;4953841;29;20047;-88
2022/09/05 03:37:30;;;;;;;9.73;5.88;;;;;;;;;;4935149;29;20087;-88
2022/09/05 03:40:14;;;;;;;7.82;6.20;;;;;;;;;;4954606;29;20047;-88
2022/09/05 03:42:46;;;;;;;9.27;5.78;;;;;;;;;;4960804;29;20051;-87
2022/09/05 03:45:31;;;;;;;9.82;6.03;;;;;;;;;;4976221;29;20043;-87
2022/09/05 03:48:09;;;;;;;11.65;5.78;;;;;;;;;;4964564;29;20047;-87
2022/09/05 03:50:50;;;;;;;8.43;5.90;;;;;;;;;;4954943;28;20043;-88
2022/09/05 03:53:32;;;;;;;6.70;5.45;;;;;;;;;;4957668;29;20035;-87
2022/09/05 03:56:04;;;;;;;8.05;6.20;;;;;;;;;;4937984;29;20517;-88
2022/09/05 03:58:32;;;;;;;7.78;6.50;;;;;;;;;;4939913;29;20036;-88
2022/09/05 04:01:16;;;;;;;10.07;6.45;;;;;;;;;;4924907;29;20512;-88
2022/09/05 04:03:48;;;;;;;7.38;5.95;;;;;;;;;;4938923;29;20047;-88
2022/09/05 04:06:20;;;;;;;9.20;6.22;;;;;;;;;;4955690;29;20043;-88
2022/09/05 04:09:05;;;;;;;9.63;7.03;;;;;;;;;;4937965;29;20079;-88
2022/09/05 04:11:34;;;;;;;9.63;6.00;;;;;;;;;;4952885;29;20058;-88
2022/09/05 04:14:08;;;;;;;8.80;6.07;;;;;;;;;;4956135;29;20055;-88
2022/09/05 04:16:43;;;;;;;9.10;6.13;;;;;;;;;;4950215;29;20502;-88
2022/09/05 04:19:21;;;;;;;9.38;5.72;;;;;;;;;;4957280;29;20059;-88
2022/09/05 04:22:13;;;;;;;8.82;6.15;;;;;;;;;;4939527;29;20061;-88
2022/09/05 04:24:52;;;;;;;9.77;6.35;;;;;;;;;;4935643;29;20051;-88
2022/09/05 04:27:36;;;;;;;10.50;6.65;;;;;;;;;;4954531;29;20047;-88
2022/09/05 04:30:02;;;;;;;10.48;6.85;;;;;;;;;;4958132;29;20411;-88
2022/09/05 04:32:35;;;;;;;9.57;7.10;;;;;;;;;;4949356;28;20052;-89
2022/09/05 04:35:12;;;;;;;9.40;6.95;;;;;;;;;;4940686;29;20482;-88
2022/09/05 04:37:42;;;;;;;9.98;6.43;;;;;;;;;;4955459;29;20486;-89
2022/09/05 04:40:27;;;;;;;9.15;6.30;;;;;;;;;;4956974;29;20039;-89
2022/09/05 04:42:53;;;;;;;9.27;6.82;;;;;;;;;;4957839;28;20081;-88
2022/09/05 04:45:19;;;;;;;7.78;6.50;;;;;;;;;;4954913;29;20434;-88
2022/09/05 04:47:49;;;;;;;8.65;6.68;;;;;;;;;;4956422;29;20107;-88
2022/09/05 04:50:18;;;;;;;8.18;6.43;;;;;;;;;;4957279;29;20061;-88
2022/09/05 04:53:00;;;;;;;11.70;7.05;;;;;;;;;;4955792;29;20046;-89
2022/09/05 04:55:26;;;;;;;;;;;;;;;;;;4954702;29;20055;-89
2022/09/05 04:57:58;;;;;;;8.90;6.95;;;;;;;;;;4953362;29;20346;-88
2022/09/05 05:00:33;;;;;;;11.15;6.68;;;;;;;;;;4957159;29;20050;-88
2022/09/05 05:03:01;;;;;;;10.85;6.72;;;;;;;;;;4952725;28;20074;-87
2022/09/05 05:05:50;;;;;;;9.25;6.90;;;;;;;;;;4940820;29;20050;-87
2022/09/05 05:08:19;;;;;;;10.30;6.45;;;;;;;;;;4948573;29;20051;-87
2022/09/05 05:10:48;;;;;;;9.27;6.50;;;;;;;;;;4954993;29;20089;-87
2022/09/05 05:13:17;;;;;;;9.07;6.68;;;;;;;;;;4953488;29;20047;-87
2022/09/05 05:16:03;;;;;;;11.35;6.75;;;;;;;;;;4954266;29;20051;-86
2022/09/05 05:18:40;;;;;;;8.85;6.90;;;;;;;;;;4944942;28;20513;-86
2022/09/05 05:21:13;;;;;;;8.85;7.55;;;;;;;;;;4956249;29;20191;-87
2022/09/05 05:23:41;;;;;;;9.45;6.90;;;;;;;;;;4955004;28;20043;-88
2022/09/05 05:26:09;;;;;;;10.20;7.43;;;;;;;;;;4956246;28;20054;-88
2022/09/05 05:28:51;;;;;;;10.23;7.00;;;;;;;;;;4948572;29;20095;-88
2022/09/05 05:31:22;;;;;;;10.23;7.13;;;;;;;;;;4954206;29;20055;-89
2022/09/05 05:33:49;;;;;;;10.20;7.25;;;;;;;;;;4966248;28;20047;-88
2022/09/05 05:36:21;;;;;;;10.35;7.45;;;;;;;;;;4954132;28;20042;-88
2022/09/05 05:38:53;;;;;;;9.25;7.28;;;;;;;;;;4954296;29;20050;-87
2022/09/05 05:41:40;;;;;;;9.75;6.93;;;;;;;;;;4952976;28;20046;-88
2022/09/05 05:44:13;;;;;;;11.77;7.05;;;;;;;;;;4953521;28;20043;-87
2022/09/05 05:46:41;;;;;;;8.93;6.78;;;;;;;;;;4952274;28;20066;-87
2022/09/05 05:49:20;;;;;;;8.57;7.15;;;;;;;;;;4959833;29;20106;-91
2022/09/05 05:52:01;;;;;;;8.73;7.03;;;;;;;;;;4954355;28;20047;-89
2022/09/05 05:54:41;;;;;;;8.00;7.07;;;;;;;;;;4950797;28;20043;-88
2022/09/05 05:57:13;;;;;;;9.45;7.25;;;;;;;;;;4950973;28;20443;-88
2022/09/05 05:59:56;;;;;;;8.30;6.82;;;;;;;;;;4953987;28;20170;-88
2022/09/05 06:02:25;;;;;;;9.75;6.80;;;;;;;;;;4954268;28;20058;-87
2022/09/05 06:04:54;;;;;;;10.05;6.80;;;;;;;;;;4965699;28;20047;-87
2022/09/05 06:07:33;;;;;;;9.95;6.82;;;;;;;;;;4970197;28;20078;-85
2022/09/05 06:10:08;;;;;;;11.00;7.50;;;;;;;;;;4961458;28;20130;-85
2022/09/05 06:12:34;;;;;;;9.00;7.03;;;;;;;;;;4953639;28;20505;-88
2022/09/05 06:15:24;;;;;;;11.90;7.85;;;;;;;;;;4951624;28;20059;-88
2022/09/05 06:17:57;;;;;;;12.32;7.72;;;;;;;;;;4966353;28;20059;-87
2022/09/05 06:20:42;;;;;;;9.68;7.28;;;;;;;;;;4953174;29;20049;-88
2022/09/05 06:23:26;;;;;;;9.27;7.18;;;;;;;;;;4954239;28;20058;-87
2022/09/05 06:26:11;;;;;;;9.63;7.25;;;;;;;;;;4958455;28;20087;-87
2022/09/05 06:29:00;;;;;;;10.65;6.80;;;;;;;;;;4968014;28;20501;-86
2022/09/05 06:31:44;;;;;;;10.48;7.00;;;;;;;;;;4962710;28;20052;-87
2022/09/05 06:34:18;;;;;;;12.30;7.22;;;;;;;;;;4950620;29;20039;-89
2022/09/05 06:36:44;;;;;;;8.25;6.63;;;;;;;;;;4941612;29;20502;-88
2022/09/05 06:39:13;;;;;;;7.82;6.63;;;;;;;;;;4953428;28;20043;-88
2022/09/05 06:41:42;;;;;;;9.00;6.38;;;;;;;;;;4955251;29;20047;-84
2022/09/05 06:44:18;;;;;;;12.40;6.60;;;;;;;;;;4961410;28;20174;-87
2022/09/05 06:46:45;;;;;;;12.90;6.50;;;;;;;;;;4955356;28;20062;-88
2022/09/05 06:49:19;;;;;;;9.98;6.13;;;;;;;;;;4951830;29;20055;-86
2022/09/05 06:52:04;;;;;;;10.05;6.28;;;;;;;;;;4955512;29;20077;-86
2022/09/05 06:54:48;;;;;;;17.92;6.50;;;;;;;;;;4953201;28;20047;-87
2022/09/05 06:57:14;;;;;;;7.95;5.70;;;;;;;;;;4937509;29;20105;-84
2022/09/05 06:59:43;;;;;;;8.30;5.65;;;;;;;;;;4953086;29;20083;-84
2022/09/05 07:02:12;;;;;;;7.35;5.35;;;;;;;;;;4937580;29;20047;-84
2022/09/05 07:04:43;;;;;;;11.00;5.55;;;;;;;;;;4955968;29;20051;-83
2022/09/05 07:07:13;;;;;;;11.98;5.15;;;;;;;;;;4957388;28;20062;-83
2022/09/05 07:09:39;;;;;;;9.45;5.75;;;;;;;;;;4953681;28;20126;-84
2022/09/05 07:12:21;;;;;;;8.43;5.22;;;;;;;;;;4955403;28;20525;-83
2022/09/05 07:15:07;;;;;;;7.90;5.63;;;;;;;;;;4953369;29;20110;-85
2022/09/05 07:17:40;;;;;;;12.07;5.72;;;;;;;;;;4956664;28;20150;-85
2022/09/05 07:20:16;;;;;;;11.73;4.82;;;;;;;;;;4954371;28;20051;-84
2022/09/05 07:23:08;;;;;;;8.75;5.45;;;;;;;;;;4942945;29;20107;-84
2022/09/05 07:25:35;;;;;;;13.73;5.93;;;;;;;;;;4939576;29;20067;-85
2022/09/05 07:28:11;;;;;;;12.30;5.07;;;;;;;;;;4967458;28;20043;-79
2022/09/05 07:30:38;;;;;;;14.80;4.47;;;;;;;;;;4943851;29;20028;-81
2022/09/05 07:33:05;;;;;;;10.95;4.90;;;;;;;;;;4956549;29;20043;-82
2022/09/05 07:35:36;;;;;;;9.73;5.28;;;;;;;;;;4964844;28;20039;-80
2022/09/05 07:38:02;;;;;;;8.23;5.15;;;;;;;;;;4938652;29;20058;-81
2022/09/05 07:40:31;;;;;;;9.48;4.75;;;;;;;;;;4951090;29;20050;-85
2022/09/05 07:43:03;;;;;;;8.35;5.28;;;;;;;;;;4959195;28;20039;-84
2022/09/05 07:45:30;;;;;;;7.93;4.43;;;;;;;;;;4949347;28;20052;-84
2022/09/05 07:48:02;;;;;;;8.98;4.97;;;;;;;;;;4968896;28;20490;-84
2022/09/05 07:50:29;;;;;;;10.25;4.85;;;;;;;;;;4945842;29;20051;-83
2022/09/05 07:52:57;;;;;;;9.40;5.03;;;;;;;;;;4926607;28;20047;-85
2022/09/05 07:55:29;;;;;;;13.07;4.93;;;;;;;;;;4960925;28;20117;-85
2022/09/05 07:57:58;;;;;;;10.75;4.95;;;;;;;;;;4939796;29;20048;-85
2022/09/05 08:00:25;;;;;;;14.60;4.88;;;;;;;;;;4939660;29;20058;-85
2022/09/05 08:02:51;;;;;;;15.02;4.10;;;;;;;;;;4939316;29;20051;-86
2022/09/05 08:05:19;;;;;;;15.32;4.97;;;;;;;;;;4922314;29;20358;-86
2022/09/05 08:07:47;;;;;;;12.13;4.93;;;;;;;;;;4942272;28;20075;-86
2022/09/05 08:10:26;;;;;;;11.30;4.68;;;;;;;;;;4958180;29;20130;-86
2022/09/05 08:13:03;;;;;;;9.95;5.00;;;;;;;;;;4958796;29;20055;-85
2022/09/05 08:15:30;;;;;;;11.52;4.90;;;;;;;;;;4958912;29;20399;-86
2022/09/05 08:18:11;;;;;;;12.07;4.80;;;;;;;;;;4958261;29;20061;-86
2022/09/05 08:20:52;;;;;;;13.43;5.05;;;;;;;;;;4940082;28;20063;-86
2022/09/05 08:23:37;;;;;;;11.52;4.53;;;;;;;;;;4955844;29;20044;-87
2022/09/05 08:26:14;;;;;;;12.70;4.55;;;;;;;;;;4956288;28;20058;-85
2022/09/05 08:28:51;;;;;;;11.18;5.00;;;;;;;;;;4973556;29;20057;-85
2022/09/05 08:31:24;;;;;;;8.25;4.70;;;;;;;;;;4973820;29;20061;-85
2022/09/05 08:33:52;;;;;;;10.27;4.80;;;;;;;;;;4958360;29;20494;-86
2022/09/05 08:36:27;;;;;;;10.52;4.63;;;;;;;;;;4958816;28;20047;-85
2022/09/05 08:38:53;;;;;;;13.38;5.00;;;;;;;;;;4940725;29;20058;-85
2022/09/05 08:41:25;;;;;;;11.85;4.78;;;;;;;;;;4940875;29;20079;-86
2022/09/05 08:43:54;;;;;;;16.98;4.43;;;;;;;;;;4939802;29;20047;-85
2022/09/05 08:46:39;;;;;;;13.20;4.45;;;;;;;;;;4939514;29;20058;-85
2022/09/05 08:49:29;;;;;;;10.48;4.80;;;;;;;;;;4939494;29;20044;-85
2022/09/05 08:52:13;;;;;;;12.43;5.95;;;;;;;;;;4949463;28;20070;-85
2022/09/05 08:54:51;;;;;;;9.85;5.25;;;;;;;;;;4958108;29;20053;-86
2022/09/05 08:57:20;;;;;;;9.55;5.60;;;;;;;;;;4958959;29;20557;-85
2022/09/05 09:00:05;;;;;;;12.23;4.70;;;;;;;;;;4958378;29;20458;-85
2022/09/05 09:02:47;;;;;;;11.10;5.30;;;;;;;;;;4957778;28;20486;-86
2022/09/05 09:05:20;;;;;;;12.82;4.63;;;;;;;;;;4940902;29;20058;-86
2022/09/05 09:07:52;;;;;;;10.25;4.22;;;;;;;;;;4941657;29;20047;-86
2022/09/05 09:10:18;;;;;;;7.60;4.78;;;;;;;;;;4941340;29;20051;-86
2022/09/05 09:13:03;;;;;;;6.65;4.50;;;;;;;;;;4960293;29;20039;-86
2022/09/05 09:15:40;;;;;;;7.22;3.90;;;;;;;;;;4960770;29;20490;-86
2022/09/05 09:18:14;;;;;;;11.15;4.70;;;;;;;;;;4960031;28;20051;-85
2022/09/05 09:20:46;;;;;;;11.27;4.80;;;;;;;;;;4961826;29;20051;-85
2022/09/05 09:23:21;;;;;;;8.07;4.00;;;;;;;;;;4958101;29;20050;-86
2022/09/05 09:26:16;;;;;;;10.00;4.20;;;;;;;;;;4958531;29;20042;-86
2022/09/05 09:28:42;;;;;;;14.43;4.60;;;;;;;;;;4945877;29;20047;-86
2022/09/05 09:31:27;;;;;;;12.18;5.10;;;;;;;;;;4959960;29;20047;-83
2022/09/05 09:34:01;;;;;;;9.93;4.35;;;;;;;;;;4940262;29;20051;-85
2022/09/05 09:36:53;;;;;;;9.68;4.25;;;;;;;;;;4957881;29;20141;-85
2022/09/05 09:39:38;;;;;;;9.85;4.60;;;;;;;;;;4959184;29;20490;-85
2022/09/05 09:42:10;;;;;;;10.07;4.10;;;;;;;;;;4961275;29;20498;-86
2022/09/05 09:45:06;;;;;;;14.40;3.88;;;;;;;;;;4956868;29;20379;-85
2022/09/05 09:47:56;;;;;;;11.02;3.60;;;;;;;;;;4921958;29;20396;-85
2022/09/05 09:50:32;;;;;;;9.15;3.70;;;;;;;;;;4917097;29;20102;-85
2022/09/05 09:52:58;;;;;;;10.43;3.80;;;;;;;;;;4917408;29;20123;-84
2022/09/05 09:55:38;;;;;;;5.45;3.10;;;;;;;;;;4917457;29;20044;-85
2022/09/05 09:58:22;;;;;;;8.35;3.00;;;;;;;;;;4918452;29;20052;-86
2022/09/05 10:01:07;;;;;;;7.07;3.40;;;;;;;;;;4920040;29;20574;-85
2022/09/05 10:03:42;;;;;;;6.43;2.90;;;;;;;;;;4902135;29;20085;-86
2022/09/05 10:06:27;;;;;;;5.82;2.35;;;;;;;;;;4917279;29;20581;-86
2022/09/05 10:09:08;;;;;;;13.85;2.80;;;;;;;;;;4913773;29;20052;-86
2022/09/05 10:11:44;;;;;;;7.93;2.90;;;;;;;;;;4930067;29;20056;-86
2022/09/05 10:14:37;;;;;;;7.22;2.67;;;;;;;;;;4923216;29;20080;-85
2022/09/05 10:17:26;;;;;;;6.38;2.97;;;;;;;;;;4897064;29;20059;-86
2022/09/05 10:19:52;;;;;;;5.88;2.97;;;;;;;;;;4910276;29;20056;-86
2022/09/05 10:22:39;;;;;;;5.63;2.95;;;;;;;;;;4916027;29;20044;-86
2022/09/05 10:25:10;;;;;;;8.02;3.17;;;;;;;;;;4938246;29;20399;-82
2022/09/05 10:27:36;;;;;;;6.38;2.83;;;;;;;;;;4946396;29;20413;-83
2022/09/05 10:30:03;;;;;;;5.25;2.97;;;;;;;;;;4956357;29;20055;-84
2022/09/05 10:32:34;;;;;;;7.05;2.50;;;;;;;;;;4941532;29;20477;-84
2022/09/05 10:35:06;;;;;;;6.80;3.33;;;;;;;;;;4957837;29;20083;-84
2022/09/05 10:37:40;;;;;;;8.02;2.92;;;;;;;;;;4956970;29;20098;-85
2022/09/05 10:40:09;;;;;;;8.32;3.00;;;;;;;;;;4958270;29;20055;-86
2022/09/05 10:42:42;;;;;;;6.85;2.70;;;;;;;;;;4958336;29;20044;-85
2022/09/05 10:45:14;;;;;;;6.38;2.50;;;;;;;;;;4958417;28;20039;-85
2022/09/05 10:47:41;;;;;;;7.60;2.40;;;;;;;;;;4942292;29;20561;-86
2022/09/05 10:50:07;;;;;;;5.15;2.20;;;;;;;;;;4958447;29;20047;-83
2022/09/05 10:52:56;;;;;;;5.03;2.40;;;;;;;;;;4963271;29;20074;-85
2022/09/05 10:55:24;;;;;;;6.28;2.40;;;;;;;;;;4952194;29;20076;-84
2022/09/05 10:57:56;;;;;;;5.68;1.95;;;;;;;;;;4946245;29;20075;-85
2022/09/05 11:00:28;;;;;;;6.60;2.20;;;;;;;;;;4958926;28;20047;-86
2022/09/05 11:02:59;;;;;;;5.88;2.10;;;;;;;;;;4957777;29;20046;-85
2022/09/05 11:05:25;;;;;;;6.65;2.20;;;;;;;;;;4955233;29;20051;-85
2022/09/05 11:07:58;;;;;;;5.93;2.47;;;;;;;;;;4957670;29;20050;-85
2022/09/05 11:10:31;;;;;;;5.55;2.72;;;;;;;;;;4957422;29;20103;-85
2022/09/05 11:13:09;;;;;;;7.22;2.47;;;;;;;;;;4959183;29;20047;-84
2022/09/05 11:15:38;;;;;;;8.48;2.40;;;;;;;;;;4954704;28;20409;-85
2022/09/05 11:18:04;;;;;;;8.77;2.45;;;;;;;;;;4952894;29;20069;-85
2022/09/05 11:20:49;;;;;;;9.20;2.40;;;;;;;;;;4937861;29;20051;-85
2022/09/05 11:23:16;;;;;;;7.45;2.65;;;;;;;;;;4955608;29;20048;-85
2022/09/05 11:25:45;;;;;;;5.75;2.45;;;;;;;;;;4955988;29;20062;-86
2022/09/05 11:28:31;;;;;;;5.72;2.03;;;;;;;;;;4938233;29;20061;-86
2022/09/05 11:30:57;;;;;;;5.82;2.30;;;;;;;;;;4920256;29;20386;-85
2022/09/05 11:33:35;;;;;;;7.05;2.45;;;;;;;;;;4955639;29;20047;-85
2022/09/05 11:36:15;;;;;;;11.93;3.00;;;;;;;;;;4956870;29;20051;-84
2022/09/05 11:38:44;;;;;;;6.03;2.33;;;;;;;;;;4956875;29;20081;-85
2022/09/05 11:41:13;;;;;;;5.63;2.35;;;;;;;;;;4939215;29;20441;-85
2022/09/05 11:43:45;;;;;;;6.57;2.63;;;;;;;;;;4939701;29;20059;-84
2022/09/05 11:46:18;;;;;;;5.85;2.17;;;;;;;;;;4927826;29;20513;-85
2022/09/05 11:48:47;;;;;;;7.63;2.45;;;;;;;;;;4940812;29;20446;-83
2022/09/05 11:51:23;;;;;;;7.85;2.10;;;;;;;;;;4956256;29;20070;-84
2022/09/05 11:53:55;;;;;;;4.60;2.20;;;;;;;;;;4955805;29;20058;-86
2022/09/05 11:56:24;;;;;;;6.93;2.08;;;;;;;;;;4955746;29;20043;-85
2022/09/05 11:59:06;;;;;;;7.90;2.28;;;;;;;;;;4935087;29;20047;-85
2022/09/05 12:01:36;;;;;;;4.03;2.03;;;;;;;;;;4938561;29;20139;-84
2022/09/05 12:04:05;;;;;;;;;;;;;;;;;;4938654;29;20062;-84
2022/09/05 12:06:47;;;;;;;5.90;2.20;;;;;;;;;;4935550;29;19981;-85
2022/09/05 12:09:20;;;;;;;6.45;2.33;;;;;;;;;;4936645;29;20505;-83
2022/09/05 12:11:52;;;;;;;7.25;2.00;;;;;;;;;;4941121;28;20074;-84
2022/09/05 12:14:21;;;;;;;7.93;2.00;;;;;;;;;;4958864;29;20528;-85
2022/09/05 12:16:53;;;;;;;6.35;2.30;;;;;;;;;;4922015;29;20162;-84
2022/09/05 12:19:25;;;;;;;6.70;2.00;;;;;;;;;;4939729;29;20430;-84
2022/09/05 12:21:56;;;;;;;7.30;2.10;;;;;;;;;;4940397;29;20482;-83
2022/09/05 12:24:37;;;;;;;5.32;1.90;;;;;;;;;;4939997;29;20083;-85
2022/09/05 12:27:04;;;;;;;7.68;2.13;;;;;;;;;;4946045;28;20043;-84
2022/09/05 12:29:34;;;;;;;7.47;2.20;;;;;;;;;;4941731;29;20051;-85
2022/09/05 12:32:00;;;;;;;7.32;2.20;;;;;;;;;;4959444;28;20047;-85
2022/09/05 12:34:41;;;;;;;5.90;2.00;;;;;;;;;;4925795;29;20047;-85
2022/09/05 12:37:12;;;;;;;7.70;2.15;;;;;;;;;;4959133;29;20491;-85
2022/09/05 12:39:43;;;;;;;6.88;2.35;;;;;;;;;;4941937;29;20082;-85
2022/09/05 12:42:09;;;;;;;;;;;;;;;;;;4922394;29;20074;-83
2022/09/05 12:44:47;;;;;;;6.05;2.15;;;;;;;;;;4924270;29;20319;-85
2022/09/05 12:47:17;;;;;;;6.85;2.20;;;;;;;;;;4956806;29;20054;-85
2022/09/05 12:49:47;;;;;;;7.22;2.47;;;;;;;;;;4940677;29;20051;-85
2022/09/05 12:52:18;;;;;;;7.80;2.20;;;;;;;;;;4925818;29;20398;-86
2022/09/05 12:54:56;;;;;;;5.50;2.20;;;;;;;;;;4958206;29;20528;-85
2022/09/05 12:57:26;;;;;;;6.90;2.40;;;;;;;;;;4921519;29;20056;-86
2022/09/05 12:59:54;;;;;;;6.18;2.35;;;;;;;;;;4938421;29;20379;-85
2022/09/05 13:02:23;;;;;;;5.53;2.20;;;;;;;;;;4938625;29;20059;-86
2022/09/05 13:04:55;;;;;;;6.03;2.30;;;;;;;;;;4938540;29;20052;-86
2022/09/05 13:07:22;;;;;;;6.10;2.28;;;;;;;;;;4938556;29;20050;-85
2022/09/05 13:09:55;;;;;;;9.88;2.15;;;;;;;;;;4938252;29;20055;-85
2022/09/05 13:12:37;;;;;;;5.43;2.00;;;;;;;;;;4953053;28;20046;-85
2022/09/05 13:15:10;;;;;;;4.07;1.90;;;;;;;;;;4957483;29;20051;-85
2022/09/05 13:17:44;;;;;;;8.88;2.08;;;;;;;;;;4964334;29;20218;-85
2022/09/05 13:20:34;;;;;;;6.47;2.13;;;;;;;;;;4969824;29;20058;-84
2022/09/05 13:23:03;;;;;;;5.17;2.00;;;;;;;;;;4936803;29;20158;-86
2022/09/05 13:25:30;;;;;;;8.45;2.35;;;;;;;;;;4957987;28;20051;-85
2022/09/05 13:28:02;;;;;;;5.00;1.80;;;;;;;;;;4959042;29;20047;-85
2022/09/05 13:30:29;;;;;;;5.55;2.20;;;;;;;;;;4940701;29;20075;-85
2022/09/05 13:32:59;;;;;;;5.40;2.00;;;;;;;;;;4957015;29;20058;-85
2022/09/05 13:35:31;;;;;;;6.90;2.33;;;;;;;;;;4957087;29;20089;-85
2022/09/05 13:38:03;;;;;;;5.53;1.90;;;;;;;;;;4958485;29;20043;-86
2022/09/05 13:40:37;;;;;;;5.78;2.28;;;;;;;;;;4927243;29;20071;-84
2022/09/05 13:43:14;;;;;;;6.90;2.13;;;;;;;;;;4938124;29;20102;-86
2022/09/05 13:45:53;;;;;;;5.82;1.95;;;;;;;;;;4956540;29;20048;-84
2022/09/05 13:48:19;;;;;;;5.35;1.95;;;;;;;;;;4956679;29;20494;-85
2022/09/05 13:50:53;;;;;;;4.35;2.05;;;;;;;;;;4955676;29;20173;-85
2022/09/05 13:53:50;;;;;;;3.95;2.00;;;;;;;;;;4955978;28;20509;-85
2022/09/05 13:56:22;;;;;;;7.05;2.00;;;;;;;;;;4936313;29;20094;-85
2022/09/05 13:58:52;;;;;;;5.05;1.80;;;;;;;;;;4956336;29;20043;-85
2022/09/05 14:01:33;;;;;;;7.13;2.00;;;;;;;;;;4956606;29;20074;-86
2022/09/05 14:04:19;;;;;;;4.80;1.83;;;;;;;;;;4938921;29;20533;-86
2022/09/05 14:07:03;;;;;;;4.28;1.88;;;;;;;;;;4938803;29;20127;-86
2022/09/05 14:09:45;;;;;;;3.92;1.80;;;;;;;;;;4935769;29;20051;-85
2022/09/05 14:12:11;;;;;;;8.45;1.95;;;;;;;;;;4962512;28;20047;-85
2022/09/05 14:14:45;;;;;;;5.00;1.90;;;;;;;;;;4973872;28;20031;-86
2022/09/05 14:17:34;;;;;;;4.82;1.80;;;;;;;;;;4961594;29;20066;-85
2022/09/05 14:22:52;;;;;;;6.53;1.95;;;;;;;;;;4937875;29;20085;-89
2022/09/05 14:25:28;;;;;;;12.38;2.40;;;;;;;;;;4965169;28;20059;-91
2022/09/05 14:27:54;;;;;;;6.05;1.80;;;;;;;;;;4994151;23;20058;-71
2022/09/05 14:30:39;;;;;;;5.32;1.92;;;;;;;;;;4997338;28;20054;-72
2022/09/05 14:33:24;;;;;;;5.70;1.80;;;;;;;;;;4985447;28;20050;-72
2022/09/05 14:35:53;;;;;;;7.53;1.85;;;;;;;;;;4989833;28;20111;-72
2022/09/05 14:38:22;;;;;;;4.32;1.98;;;;;;;;;;4991559;28;20053;-73
2022/09/05 14:41:07;;;;;;;9.75;2.67;;;;;;;;;;4982221;28;20374;-73
2022/09/05 14:43:39;;;;;;;5.13;1.80;;;;;;;;;;4975633;28;20034;-72
2022/09/05 14:46:24;;;;;;;6.05;1.90;;;;;;;;;;4992787;28;20500;-72
2022/09/05 14:48:50;;;;;;;5.85;1.90;;;;;;;;;;4992828;28;20077;-72
2022/09/05 14:51:34;;;;;;;5.60;1.80;;;;;;;;;;4994595;28;20046;-72
2022/09/05 14:54:01;;;;;;;5.40;2.15;;;;;;;;;;4990668;28;20393;-73
2022/09/05 14:56:36;;;;;;;4.60;1.83;;;;;;;;;;4991765;28;20046;-73
2022/09/05 14:59:21;;;;;;;5.75;1.92;;;;;;;;;;4988035;28;20101;-71
2022/09/05 15:01:48;;;;;;;5.40;1.90;;;;;;;;;;4990798;28;20062;-72
2022/09/05 15:04:18;;;;;;;7.57;1.90;;;;;;;;;;4992669;28;20051;-73
2022/09/05 15:06:58;;;;;;;7.95;2.10;;;;;;;;;;4992554;28;20042;-73
2022/09/05 15:09:24;;;;;;;5.57;1.80;;;;;;;;;;4991633;28;20046;-72
2022/09/05 15:11:50;;;;;;;3.95;1.90;;;;;;;;;;4991741;28;20097;-73
2022/09/05 15:14:18;;;;;;;4.18;1.70;;;;;;;;;;4991905;28;20049;-73
2022/09/05 15:16:56;;;;;;;4.70;1.70;;;;;;;;;;4988485;28;20159;-73
2022/09/05 15:19:40;;;;;;;5.97;2.00;;;;;;;;;;4989932;28;20061;-73
2022/09/05 15:22:22;;;;;;;4.82;1.90;;;;;;;;;;4990528;28;20100;-73
2022/09/05 15:25:01;;;;;;;4.85;1.80;;;;;;;;;;4997045;28;20049;-73
2022/09/05 15:27:28;;;;;;;5.60;1.70;;;;;;;;;;5000287;28;20054;-73
2022/09/05 15:30:01;;;;;;;5.50;1.75;;;;;;;;;;5010983;28;20103;-73